createdAt,value
2023-04-26T00:04:02.629Z,100062.72
2023-04-26T00:08:59.497Z,100055.38
2023-04-26T00:13:57.760Z,100055.13
2023-04-26T00:18:56.086Z,100055.06
2023-04-26T00:23:52.923Z,100060.88
2023-04-26T00:28:49.825Z,100050.22
2023-04-26T00:33:47.449Z,100049.38
2023-04-26T00:38:44.235Z,100051.31
2023-04-26T00:43:40.913Z,100052.03
2023-04-26T00:48:38.070Z,100044.59
2023-04-26T00:53:35.954Z,100048.75
2023-04-26T00:58:32.549Z,100039.56
2023-04-26T01:03:30.020Z,100037.84
2023-04-26T01:08:28.792Z,100033.75
2023-04-26T01:13:28.648Z,100027.84
2023-04-26T01:18:25.410Z,100044.75
2023-04-26T01:23:22.786Z,100038.13
2023-04-26T01:28:19.515Z,100040.84
2023-04-26T01:33:16.627Z,100031.56
2023-04-26T01:38:15.753Z,100035.19
2023-04-26T01:43:15.275Z,100031.88
2023-04-26T01:48:12.110Z,100027.44
2023-04-26T01:53:08.788Z,100022.72
2023-04-26T01:58:05.466Z,100021.03
2023-04-26T02:03:03.975Z,100014.41
2023-04-26T02:08:00.844Z,100002.53
2023-04-26T02:13:00.124Z,100007.97
2023-04-26T02:17:56.899Z,100002.94
2023-04-26T02:22:54.167Z,100003.44
2023-04-26T02:27:51.039Z,100006.31
2023-04-26T02:32:47.817Z,100000.84
2023-04-26T02:37:48.401Z,100000.66
2023-04-26T02:42:45.766Z,99997.75
2023-04-26T02:47:42.582Z,100001.75
2023-04-26T02:52:39.235Z,100005.97
2023-04-26T02:57:36.312Z,100004.44
2023-04-26T03:02:33.772Z,100000.56
2023-04-26T03:07:31.325Z,100002.16
2023-04-26T03:12:27.956Z,100005.38
2023-04-26T03:17:24.773Z,99986.31
2023-04-26T03:22:22.351Z,100010.38
2023-04-26T03:27:19.153Z,100019.41
2023-04-26T03:32:16.207Z,100017.84
2023-04-26T03:37:13.508Z,100027.78
2023-04-26T03:42:13.288Z,100033.31
2023-04-26T03:47:10.298Z,100025.50
2023-04-26T03:52:07.076Z,100039.66
2023-04-26T03:57:03.805Z,100048.19
2023-04-26T04:02:01.486Z,100048.94
2023-04-26T04:06:58.781Z,100060.91
2023-04-26T04:11:55.604Z,100059.38
2023-04-26T04:16:53.027Z,100066.91
2023-04-26T04:21:51.199Z,100080.94
2023-04-26T04:26:49.186Z,100064.13
2023-04-26T04:31:45.882Z,100078.53
2023-04-26T04:36:42.856Z,100098.97
2023-04-26T04:41:47.168Z,100104.81
2023-04-26T04:46:44.884Z,100098.41
2023-04-26T04:51:41.944Z,100100.66
2023-04-26T04:56:39.350Z,100103.78
2023-04-26T05:01:38.026Z,100097.38
2023-04-26T05:06:39.171Z,100109.94
2023-04-26T05:11:36.416Z,100097.94
2023-04-26T05:16:34.714Z,100103.41
2023-04-26T05:21:33.806Z,100095.00
2023-04-26T05:26:30.853Z,100086.56
2023-04-26T05:31:48.225Z,100070.66
2023-04-26T05:37:11.674Z,100059.84
2023-04-26T05:42:10.881Z,100068.25
2023-04-26T05:47:09.000Z,100071.06
2023-04-26T05:52:06.026Z,100086.81
2023-04-26T05:57:03.899Z,100086.69
2023-04-26T06:02:03.358Z,100082.59
2023-04-26T06:07:00.939Z,100084.66
2023-04-26T06:11:57.886Z,100070.34
2023-04-26T06:16:58.452Z,100076.78
2023-04-26T06:21:57.256Z,100080.03
2023-04-26T06:26:54.737Z,100083.03
2023-04-26T06:31:52.075Z,100078.41
2023-04-26T06:36:54.221Z,100093.16
2023-04-26T06:41:53.585Z,100084.34
2023-04-26T06:47:10.796Z,100089.19
2023-04-26T06:52:09.522Z,100085.69
2023-04-26T06:57:06.709Z,100094.28
2023-04-26T07:02:03.478Z,100091.66
2023-04-26T07:07:00.687Z,100097.00
2023-04-26T07:11:58.338Z,100095.59
2023-04-26T07:16:55.058Z,100091.16
2023-04-26T07:21:53.237Z,100097.84
2023-04-26T07:26:50.363Z,100088.78
2023-04-26T07:31:50.736Z,100089.91
2023-04-26T07:36:47.812Z,100087.06
2023-04-26T07:41:44.864Z,100099.31
2023-04-26T07:46:43.283Z,100095.47
2023-04-26T07:51:43.793Z,100107.91
2023-04-26T07:56:41.140Z,100102.28
2023-04-26T08:01:40.420Z,100095.28
2023-04-26T08:06:38.572Z,100104.25
2023-04-26T08:11:35.953Z,100103.88
2023-04-26T08:16:35.679Z,100102.56
2023-04-26T08:21:32.629Z,100091.28
2023-04-26T08:26:29.420Z,100094.78
2023-04-26T08:31:27.281Z,100102.94
2023-04-26T08:36:25.699Z,100102.94
2023-04-26T08:41:37.301Z,100096.09
2023-04-26T08:46:42.728Z,100088.53
2023-04-26T08:51:42.357Z,100105.69
2023-04-26T08:56:43.051Z,100106.22
2023-04-26T09:01:44.151Z,100097.22
2023-04-26T09:06:43.358Z,100089.28
2023-04-26T09:11:57.879Z,100103.69
2023-04-26T09:16:58.315Z,100098.16
2023-04-26T09:21:55.644Z,100093.75
2023-04-26T09:27:03.188Z,100100.56
2023-04-26T09:32:03.302Z,100087.41
2023-04-26T09:37:00.919Z,100095.22
2023-04-26T09:41:57.809Z,100087.69
2023-04-26T09:47:01.698Z,100094.34
2023-04-26T09:52:05.976Z,100083.13
2023-04-26T09:57:05.097Z,100090.25
2023-04-26T10:02:03.972Z,100088.69
2023-04-26T10:07:04.085Z,100093.91
2023-04-26T10:12:05.495Z,100079.28
2023-04-26T10:17:08.006Z,100077.28
2023-04-26T10:22:09.862Z,100073.00
2023-04-26T10:27:08.168Z,100080.31
2023-04-26T10:32:12.442Z,100075.47
2023-04-26T10:37:13.485Z,100071.88
2023-04-26T10:42:27.086Z,100074.41
2023-04-26T10:47:33.083Z,100081.09
2023-04-26T10:52:43.560Z,100077.09
2023-04-26T10:57:53.292Z,100070.91
2023-04-26T11:03:15.057Z,100055.94
2023-04-26T11:08:18.231Z,100061.63
2023-04-26T11:13:19.047Z,100070.34
2023-04-26T11:18:49.574Z,100079.03
2023-04-26T11:23:53.696Z,100068.63
2023-04-26T11:28:51.644Z,100063.09
2023-04-26T11:33:50.807Z,100057.28
2023-04-26T11:38:52.311Z,100036.88
2023-04-26T11:43:52.394Z,100061.63
2023-04-26T11:48:49.618Z,100057.88
2023-04-26T11:53:47.257Z,100056.34
2023-04-26T11:58:45.027Z,100053.31
2023-04-26T12:03:43.177Z,100044.22
2023-04-26T12:08:42.493Z,100055.44
2023-04-26T12:13:39.693Z,100048.94
2023-04-26T12:18:36.963Z,100043.00
2023-04-26T12:23:47.346Z,100050.03
2023-04-26T12:28:44.708Z,100043.63
2023-04-26T12:33:41.716Z,100039.13
2023-04-26T12:38:38.916Z,100043.41
2023-04-26T12:43:36.860Z,100035.41
2023-04-26T12:48:35.312Z,100035.41
2023-04-26T12:53:32.392Z,100025.47
2023-04-26T12:58:29.285Z,100042.25
2023-04-26T13:03:27.368Z,100042.34
2023-04-26T13:08:24.943Z,100015.88
2023-04-26T13:13:26.308Z,100047.13
2023-04-26T13:18:30.251Z,100034.66
2023-04-26T13:23:30.254Z,100041.34
2023-04-26T13:28:27.253Z,100044.13
2023-04-26T13:33:24.173Z,100046.59
2023-04-26T13:38:21.749Z,100052.34
2023-04-26T13:43:18.743Z,100049.00
2023-04-26T13:48:15.939Z,100057.06
2023-04-26T13:53:13.208Z,100059.25
2023-04-26T13:58:11.015Z,100051.03
2023-04-26T14:03:07.968Z,100054.16
2023-04-26T14:08:05.537Z,100052.34
2023-04-26T14:13:02.487Z,100054.22
2023-04-26T14:18:00.189Z,100052.13
2023-04-26T14:22:57.089Z,100065.78
2023-04-26T14:27:53.911Z,100058.69
2023-04-26T14:32:50.790Z,100062.63
2023-04-26T14:37:48.448Z,100063.47
2023-04-26T14:42:45.490Z,100059.72
2023-04-26T14:47:42.428Z,100062.88
2023-04-26T14:52:39.656Z,100071.75
2023-04-26T14:57:40.103Z,100084.13
2023-04-26T15:02:37.032Z,100089.78
2023-04-26T15:07:33.896Z,100111.44
2023-04-26T15:12:30.893Z,100121.03
2023-04-26T15:17:30.409Z,100125.88
2023-04-26T15:22:27.162Z,100130.16
2023-04-26T15:27:24.528Z,100154.78
2023-04-26T15:32:24.232Z,100146.16
2023-04-26T15:37:21.783Z,100165.66
2023-04-26T15:42:18.765Z,100193.00
2023-04-26T15:47:15.343Z,100202.28
2023-04-26T15:52:12.182Z,100220.97
2023-04-26T15:57:09.605Z,100234.09
2023-04-26T16:02:06.725Z,100237.84
2023-04-26T16:07:03.874Z,100241.34
2023-04-26T16:12:00.741Z,100252.50
2023-04-26T16:16:59.655Z,100258.63
2023-04-26T16:21:56.535Z,100266.31
2023-04-26T16:26:55.909Z,100265.09
2023-04-26T16:31:52.849Z,100275.09
2023-04-26T16:36:50.437Z,100291.00
2023-04-26T16:41:47.203Z,100294.47
2023-04-26T16:46:44.521Z,100295.56
2023-04-26T16:51:43.691Z,100306.00
2023-04-26T16:56:41.054Z,100309.50
2023-04-26T17:01:37.647Z,100304.25
2023-04-26T17:06:34.300Z,100321.19
2023-04-26T17:11:30.836Z,100329.13
2023-04-26T17:16:28.328Z,100336.19
2023-04-26T17:21:25.306Z,100344.78
2023-04-26T17:26:22.438Z,100351.22
2023-04-26T17:31:19.449Z,100349.16
2023-04-26T17:36:17.203Z,100357.00
2023-04-26T17:41:13.859Z,100369.56
2023-04-26T17:46:12.856Z,100388.09
2023-04-26T17:51:09.647Z,100407.59
2023-04-26T17:56:09.506Z,100419.72
2023-04-26T18:01:06.177Z,100428.91
2023-04-26T18:06:02.956Z,100441.50
2023-04-26T18:10:59.676Z,100442.00
2023-04-26T18:15:57.044Z,100469.94
2023-04-26T18:20:53.700Z,100475.34
2023-04-26T18:25:50.668Z,100490.06
2023-04-26T18:30:51.985Z,100508.25
2023-04-26T18:35:49.712Z,100506.94
2023-04-26T18:40:47.241Z,100517.00
2023-04-26T18:45:44.052Z,100535.44
2023-04-26T18:50:40.820Z,100546.44
2023-04-26T18:55:38.267Z,100556.78
2023-04-26T19:00:35.004Z,100551.69
2023-04-26T19:05:31.579Z,100566.16
2023-04-26T19:10:28.208Z,100570.97
2023-04-26T19:15:25.777Z,100578.41
2023-04-26T19:20:23.148Z,100583.16
2023-04-26T19:25:22.671Z,100584.47
2023-04-26T19:30:19.335Z,100595.31
2023-04-26T19:35:16.913Z,100592.44
2023-04-26T19:40:13.539Z,100605.03
2023-04-26T19:45:10.708Z,100590.66
2023-04-26T19:50:07.718Z,100621.25
2023-04-26T19:55:05.623Z,100629.28
2023-04-26T20:00:02.274Z,100635.97
2023-04-26T20:05:04.557Z,100644.50
2023-04-26T20:10:01.228Z,100641.84
2023-04-26T20:14:58.790Z,100657.75
2023-04-26T20:19:58.677Z,100658.34
2023-04-26T20:24:55.184Z,100670.91
2023-04-26T20:29:52.059Z,100667.13
2023-04-26T20:34:56.357Z,100665.63
2023-04-26T20:39:53.136Z,100666.97
2023-04-26T20:44:52.367Z,100669.41
2023-04-26T20:49:49.090Z,100672.91
2023-04-26T20:54:46.597Z,100680.25
2023-04-26T20:59:43.223Z,100685.56
2023-04-26T21:04:42.192Z,100681.13
2023-04-26T21:09:38.995Z,100680.16
2023-04-26T21:14:36.308Z,100684.31
2023-04-26T21:19:33.063Z,100691.47
2023-04-26T21:24:29.807Z,100688.59
2023-04-26T21:29:26.507Z,100691.81
2023-04-26T21:34:23.929Z,100675.88
2023-04-26T21:39:20.600Z,100703.88
2023-04-26T21:44:17.335Z,100703.28
2023-04-26T21:49:14.045Z,100723.00
2023-04-26T21:54:11.359Z,100734.06
2023-04-26T21:59:09.622Z,100734.75
2023-04-26T22:04:06.401Z,100736.03
2023-04-26T22:09:03.654Z,100736.75
2023-04-26T22:14:00.913Z,100755.50
2023-04-26T22:18:57.450Z,100766.88
2023-04-26T22:23:54.177Z,100772.03
2023-04-26T22:28:50.723Z,100777.31
2023-04-26T22:33:48.473Z,100787.47
2023-04-26T22:38:45.491Z,100769.69
2023-04-26T22:43:43.390Z,100789.16
2023-04-26T22:48:40.045Z,100806.31
2023-04-26T22:53:37.432Z,100795.63
2023-04-26T22:58:34.028Z,100796.50
2023-04-26T23:03:30.989Z,100804.41
2023-04-26T23:08:27.843Z,100803.47
2023-04-26T23:13:25.743Z,100817.47
2023-04-26T23:18:22.388Z,100811.09
2023-04-26T23:23:19.043Z,100814.56
2023-04-26T23:28:15.891Z,100822.66
2023-04-26T23:33:13.198Z,100818.16
2023-04-26T23:38:10.009Z,100818.66
2023-04-26T23:43:06.866Z,100803.44
2023-04-26T23:48:03.777Z,100821.66
2023-04-26T23:53:01.204Z,100818.13
2023-04-26T23:57:57.884Z,100820.16
